sensor_id;sensor_type;location;lat;lon;timestamp;P1;durP1;ratioP1;P2;durP2;ratioP2
65182;SDS011;51771;51.068;-1.780;2023-08-17T00:02:14;4.25;;;1.70;;
65182;SDS011;51771;51.068;-1.780;2023-08-17T00:04:40;5.80;;;2.07;;
65182;SDS011;51771;51.068;-1.780;2023-08-17T00:07:05;5.35;;;2.00;;
65182;SDS011;51771;51.068;-1.780;2023-08-17T00:09:31;6.07;;;2.05;;
65182;SDS011;51771;51.068;-1.780;2023-08-17T00:11:56;6.05;;;2.08;;
65182;SDS011;51771;51.068;-1.780;2023-08-17T00:14:22;4.63;;;1.70;;
65182;SDS011;51771;51.068;-1.780;2023-08-17T00:16:48;4.23;;;2.00;;
65182;SDS011;51771;51.068;-1.780;2023-08-17T00:19:14;5.78;;;1.90;;
65182;SDS011;51771;51.068;-1.780;2023-08-17T00:21:39;4.07;;;1.60;;
65182;SDS011;51771;51.068;-1.780;2023-08-17T00:24:04;4.20;;;1.60;;
65182;SDS011;51771;51.068;-1.780;2023-08-17T00:26:29;5.47;;;2.00;;
65182;SDS011;51771;51.068;-1.780;2023-08-17T00:28:55;6.07;;;2.13;;
65182;SDS011;51771;51.068;-1.780;2023-08-17T00:31:20;4.57;;;1.53;;
65182;SDS011;51771;51.068;-1.780;2023-08-17T00:33:45;4.80;;;1.70;;
65182;SDS011;51771;51.068;-1.780;2023-08-17T00:36:10;6.03;;;2.00;;
65182;SDS011;51771;51.068;-1.780;2023-08-17T00:38:35;7.23;;;2.10;;
65182;SDS011;51771;51.068;-1.780;2023-08-17T00:41:01;5.40;;;2.00;;
65182;SDS011;51771;51.068;-1.780;2023-08-17T00:43:26;4.43;;;1.77;;
65182;SDS011;51771;51.068;-1.780;2023-08-17T00:45:51;4.35;;;1.67;;
65182;SDS011;51771;51.068;-1.780;2023-08-17T00:48:17;5.25;;;1.83;;
65182;SDS011;51771;51.068;-1.780;2023-08-17T00:50:42;5.65;;;2.30;;
65182;SDS011;51771;51.068;-1.780;2023-08-17T00:53:08;5.32;;;2.15;;
65182;SDS011;51771;51.068;-1.780;2023-08-17T00:55:38;5.72;;;2.17;;
65182;SDS011;51771;51.068;-1.780;2023-08-17T00:58:03;4.55;;;1.98;;
65182;SDS011;51771;51.068;-1.780;2023-08-17T01:00:28;4.57;;;1.80;;
65182;SDS011;51771;51.068;-1.780;2023-08-17T01:02:54;4.67;;;2.00;;
65182;SDS011;51771;51.068;-1.780;2023-08-17T01:05:20;5.82;;;2.20;;
65182;SDS011;51771;51.068;-1.780;2023-08-17T01:07:46;4.82;;;2.30;;
65182;SDS011;51771;51.068;-1.780;2023-08-17T01:10:11;5.80;;;2.40;;
65182;SDS011;51771;51.068;-1.780;2023-08-17T01:15:08;4.72;;;2.10;;
65182;SDS011;51771;51.068;-1.780;2023-08-17T01:17:37;5.82;;;1.88;;
65182;SDS011;51771;51.068;-1.780;2023-08-17T01:20:04;5.93;;;1.83;;
65182;SDS011;51771;51.068;-1.780;2023-08-17T01:22:30;4.82;;;1.88;;
65182;SDS011;51771;51.068;-1.780;2023-08-17T01:24:57;4.63;;;1.70;;
65182;SDS011;51771;51.068;-1.780;2023-08-17T01:27:23;6.87;;;1.83;;
65182;SDS011;51771;51.068;-1.780;2023-08-17T01:29:49;8.43;;;1.80;;
65182;SDS011;51771;51.068;-1.780;2023-08-17T01:32:24;5.82;;;1.98;;
65182;SDS011;51771;51.068;-1.780;2023-08-17T01:34:54;3.92;;;1.67;;
65182;SDS011;51771;51.068;-1.780;2023-08-17T01:37:22;4.30;;;1.88;;
65182;SDS011;51771;51.068;-1.780;2023-08-17T01:39:50;5.15;;;2.03;;
65182;SDS011;51771;51.068;-1.780;2023-08-17T01:42:17;4.35;;;2.10;;
65182;SDS011;51771;51.068;-1.780;2023-08-17T01:44:42;5.95;;;1.83;;
65182;SDS011;51771;51.068;-1.780;2023-08-17T01:47:08;4.90;;;1.70;;
65182;SDS011;51771;51.068;-1.780;2023-08-17T01:49:34;3.90;;;1.33;;
65182;SDS011;51771;51.068;-1.780;2023-08-17T01:51:59;4.47;;;1.90;;
65182;SDS011;51771;51.068;-1.780;2023-08-17T01:54:25;4.53;;;1.42;;
65182;SDS011;51771;51.068;-1.780;2023-08-17T01:56:51;4.68;;;1.67;;
65182;SDS011;51771;51.068;-1.780;2023-08-17T01:59:16;7.53;;;2.27;;
65182;SDS011;51771;51.068;-1.780;2023-08-17T02:01:41;4.95;;;2.10;;
65182;SDS011;51771;51.068;-1.780;2023-08-17T02:04:06;4.13;;;1.70;;
65182;SDS011;51771;51.068;-1.780;2023-08-17T02:06:32;12.60;;;1.70;;
65182;SDS011;51771;51.068;-1.780;2023-08-17T02:08:58;4.05;;;1.52;;
65182;SDS011;51771;51.068;-1.780;2023-08-17T02:11:23;6.22;;;1.83;;
65182;SDS011;51771;51.068;-1.780;2023-08-17T02:13:48;3.90;;;1.60;;
65182;SDS011;51771;51.068;-1.780;2023-08-17T02:16:13;4.53;;;2.17;;
65182;SDS011;51771;51.068;-1.780;2023-08-17T02:18:38;3.63;;;1.33;;
65182;SDS011;51771;51.068;-1.780;2023-08-17T02:21:04;11.90;;;2.47;;
65182;SDS011;51771;51.068;-1.780;2023-08-17T02:23:29;3.30;;;1.40;;
65182;SDS011;51771;51.068;-1.780;2023-08-17T02:25:54;5.57;;;2.03;;
65182;SDS011;51771;51.068;-1.780;2023-08-17T02:28:22;4.53;;;1.80;;
65182;SDS011;51771;51.068;-1.780;2023-08-17T02:33:13;3.67;;;1.50;;
65182;SDS011;51771;51.068;-1.780;2023-08-17T02:35:39;4.63;;;1.73;;
65182;SDS011;51771;51.068;-1.780;2023-08-17T02:38:04;4.60;;;1.90;;
65182;SDS011;51771;51.068;-1.780;2023-08-17T02:40:29;4.05;;;1.73;;
65182;SDS011;51771;51.068;-1.780;2023-08-17T02:42:54;5.00;;;1.80;;
65182;SDS011;51771;51.068;-1.780;2023-08-17T02:45:19;9.27;;;2.37;;
65182;SDS011;51771;51.068;-1.780;2023-08-17T02:47:45;5.10;;;2.28;;
65182;SDS011;51771;51.068;-1.780;2023-08-17T02:50:10;8.63;;;2.07;;
65182;SDS011;51771;51.068;-1.780;2023-08-17T02:52:35;6.83;;;2.40;;
65182;SDS011;51771;51.068;-1.780;2023-08-17T02:55:00;6.30;;;2.63;;
65182;SDS011;51771;51.068;-1.780;2023-08-17T02:57:25;14.77;;;3.77;;
65182;SDS011;51771;51.068;-1.780;2023-08-17T02:59:51;6.30;;;2.67;;
65182;SDS011;51771;51.068;-1.780;2023-08-17T03:02:16;5.87;;;2.93;;
65182;SDS011;51771;51.068;-1.780;2023-08-17T03:04:41;6.07;;;3.23;;
65182;SDS011;51771;51.068;-1.780;2023-08-17T03:07:07;9.00;;;3.47;;
65182;SDS011;51771;51.068;-1.780;2023-08-17T03:09:32;7.22;;;3.00;;
65182;SDS011;51771;51.068;-1.780;2023-08-17T03:11:57;5.67;;;2.57;;
65182;SDS011;51771;51.068;-1.780;2023-08-17T03:14:22;6.97;;;2.87;;
65182;SDS011;51771;51.068;-1.780;2023-08-17T03:16:47;8.20;;;3.30;;
65182;SDS011;51771;51.068;-1.780;2023-08-17T03:19:13;6.07;;;3.50;;
65182;SDS011;51771;51.068;-1.780;2023-08-17T03:21:38;6.53;;;3.20;;
65182;SDS011;51771;51.068;-1.780;2023-08-17T03:24:03;6.72;;;3.38;;
65182;SDS011;51771;51.068;-1.780;2023-08-17T03:26:29;8.90;;;3.83;;
65182;SDS011;51771;51.068;-1.780;2023-08-17T03:28:54;8.52;;;4.00;;
65182;SDS011;51771;51.068;-1.780;2023-08-17T03:31:22;6.57;;;3.10;;
65182;SDS011;51771;51.068;-1.780;2023-08-17T03:33:48;7.70;;;3.95;;
65182;SDS011;51771;51.068;-1.780;2023-08-17T03:36:13;9.52;;;4.07;;
65182;SDS011;51771;51.068;-1.780;2023-08-17T03:38:38;8.27;;;4.20;;
65182;SDS011;51771;51.068;-1.780;2023-08-17T03:41:04;10.90;;;5.18;;
65182;SDS011;51771;51.068;-1.780;2023-08-17T03:43:30;12.60;;;4.10;;
65182;SDS011;51771;51.068;-1.780;2023-08-17T03:45:55;13.77;;;5.68;;
65182;SDS011;51771;51.068;-1.780;2023-08-17T03:48:20;17.53;;;6.73;;
65182;SDS011;51771;51.068;-1.780;2023-08-17T03:50:50;17.80;;;7.45;;
65182;SDS011;51771;51.068;-1.780;2023-08-17T03:55:43;19.60;;;7.43;;
65182;SDS011;51771;51.068;-1.780;2023-08-17T03:58:08;22.65;;;8.60;;
65182;SDS011;51771;51.068;-1.780;2023-08-17T04:00:33;20.80;;;8.37;;
65182;SDS011;51771;51.068;-1.780;2023-08-17T04:02:58;18.93;;;8.10;;
65182;SDS011;51771;51.068;-1.780;2023-08-17T04:05:23;20.17;;;7.90;;
65182;SDS011;51771;51.068;-1.780;2023-08-17T04:07:49;22.07;;;9.50;;
65182;SDS011;51771;51.068;-1.780;2023-08-17T04:10:14;25.20;;;8.83;;
65182;SDS011;51771;51.068;-1.780;2023-08-17T04:12:39;20.40;;;8.37;;
65182;SDS011;51771;51.068;-1.780;2023-08-17T04:15:04;22.17;;;8.17;;
65182;SDS011;51771;51.068;-1.780;2023-08-17T04:17:30;23.13;;;10.00;;
65182;SDS011;51771;51.068;-1.780;2023-08-17T04:19:55;23.43;;;8.53;;
65182;SDS011;51771;51.068;-1.780;2023-08-17T04:22:20;20.70;;;8.90;;
65182;SDS011;51771;51.068;-1.780;2023-08-17T04:24:45;18.40;;;8.93;;
65182;SDS011;51771;51.068;-1.780;2023-08-17T04:27:10;27.40;;;9.10;;
65182;SDS011;51771;51.068;-1.780;2023-08-17T04:29:38;20.88;;;9.00;;
65182;SDS011;51771;51.068;-1.780;2023-08-17T04:32:03;23.63;;;9.07;;
65182;SDS011;51771;51.068;-1.780;2023-08-17T04:34:28;20.88;;;9.23;;
65182;SDS011;51771;51.068;-1.780;2023-08-17T04:36:53;24.52;;;9.02;;
65182;SDS011;51771;51.068;-1.780;2023-08-17T04:39:19;19.93;;;8.17;;
65182;SDS011;51771;51.068;-1.780;2023-08-17T04:41:44;17.37;;;8.47;;
65182;SDS011;51771;51.068;-1.780;2023-08-17T04:44:09;21.97;;;8.67;;
65182;SDS011;51771;51.068;-1.780;2023-08-17T04:46:35;17.73;;;7.63;;
65182;SDS011;51771;51.068;-1.780;2023-08-17T04:49:00;22.08;;;7.85;;
65182;SDS011;51771;51.068;-1.780;2023-08-17T04:51:25;20.77;;;7.97;;
65182;SDS011;51771;51.068;-1.780;2023-08-17T04:53:50;19.63;;;7.63;;
65182;SDS011;51771;51.068;-1.780;2023-08-17T04:56:16;22.63;;;8.30;;
65182;SDS011;51771;51.068;-1.780;2023-08-17T04:58:41;22.20;;;7.60;;
65182;SDS011;51771;51.068;-1.780;2023-08-17T05:01:06;20.17;;;7.70;;
65182;SDS011;51771;51.068;-1.780;2023-08-17T05:03:31;22.10;;;9.17;;
65182;SDS011;51771;51.068;-1.780;2023-08-17T05:05:56;22.42;;;8.90;;
65182;SDS011;51771;51.068;-1.780;2023-08-17T05:08:22;18.63;;;8.07;;
65182;SDS011;51771;51.068;-1.780;2023-08-17T05:10:47;19.33;;;7.90;;
65182;SDS011;51771;51.068;-1.780;2023-08-17T05:13:12;18.58;;;7.85;;
65182;SDS011;51771;51.068;-1.780;2023-08-17T05:15:38;17.63;;;7.90;;
65182;SDS011;51771;51.068;-1.780;2023-08-17T05:18:03;21.60;;;8.43;;
65182;SDS011;51771;51.068;-1.780;2023-08-17T05:20:28;17.77;;;9.57;;
65182;SDS011;51771;51.068;-1.780;2023-08-17T05:22:54;20.33;;;8.27;;
65182;SDS011;51771;51.068;-1.780;2023-08-17T05:25:19;18.20;;;7.50;;
65182;SDS011;51771;51.068;-1.780;2023-08-17T05:27:44;18.15;;;8.60;;
65182;SDS011;51771;51.068;-1.780;2023-08-17T05:30:09;16.53;;;7.20;;
65182;SDS011;51771;51.068;-1.780;2023-08-17T05:32:35;19.52;;;8.95;;
65182;SDS011;51771;51.068;-1.780;2023-08-17T05:35:00;21.80;;;8.77;;
65182;SDS011;51771;51.068;-1.780;2023-08-17T05:37:25;17.60;;;7.80;;
65182;SDS011;51771;51.068;-1.780;2023-08-17T05:39:50;24.52;;;8.63;;
65182;SDS011;51771;51.068;-1.780;2023-08-17T05:42:16;18.85;;;8.77;;
65182;SDS011;51771;51.068;-1.780;2023-08-17T05:44:41;18.73;;;7.80;;
65182;SDS011;51771;51.068;-1.780;2023-08-17T05:47:06;17.58;;;7.55;;
65182;SDS011;51771;51.068;-1.780;2023-08-17T05:49:31;18.70;;;8.53;;
65182;SDS011;51771;51.068;-1.780;2023-08-17T05:51:57;19.27;;;7.63;;
65182;SDS011;51771;51.068;-1.780;2023-08-17T05:54:22;20.20;;;8.38;;
65182;SDS011;51771;51.068;-1.780;2023-08-17T05:56:47;17.27;;;8.57;;
65182;SDS011;51771;51.068;-1.780;2023-08-17T05:59:13;20.70;;;7.43;;
65182;SDS011;51771;51.068;-1.780;2023-08-17T06:01:39;22.05;;;8.75;;
65182;SDS011;51771;51.068;-1.780;2023-08-17T06:04:04;19.48;;;8.63;;
65182;SDS011;51771;51.068;-1.780;2023-08-17T06:06:30;15.85;;;7.15;;
65182;SDS011;51771;51.068;-1.780;2023-08-17T06:08:55;25.10;;;8.33;;
65182;SDS011;51771;51.068;-1.780;2023-08-17T06:11:20;17.10;;;8.70;;
65182;SDS011;51771;51.068;-1.780;2023-08-17T06:13:45;18.73;;;8.40;;
65182;SDS011;51771;51.068;-1.780;2023-08-17T06:16:10;17.87;;;6.97;;
65182;SDS011;51771;51.068;-1.780;2023-08-17T06:18:36;18.20;;;7.65;;
65182;SDS011;51771;51.068;-1.780;2023-08-17T06:21:02;19.88;;;8.05;;
65182;SDS011;51771;51.068;-1.780;2023-08-17T06:23:27;17.75;;;7.78;;
65182;SDS011;51771;51.068;-1.780;2023-08-17T06:25:55;20.50;;;8.10;;
65182;SDS011;51771;51.068;-1.780;2023-08-17T06:28:21;16.60;;;7.38;;
65182;SDS011;51771;51.068;-1.780;2023-08-17T06:30:46;13.00;;;6.00;;
65182;SDS011;51771;51.068;-1.780;2023-08-17T06:33:11;15.67;;;6.80;;
65182;SDS011;51771;51.068;-1.780;2023-08-17T06:35:36;13.60;;;5.97;;
65182;SDS011;51771;51.068;-1.780;2023-08-17T06:38:01;14.57;;;6.30;;
65182;SDS011;51771;51.068;-1.780;2023-08-17T06:40:27;15.73;;;6.28;;
65182;SDS011;51771;51.068;-1.780;2023-08-17T06:42:52;11.75;;;5.80;;
65182;SDS011;51771;51.068;-1.780;2023-08-17T06:45:19;11.63;;;6.03;;
65182;SDS011;51771;51.068;-1.780;2023-08-17T06:47:45;12.20;;;5.90;;
65182;SDS011;51771;51.068;-1.780;2023-08-17T06:50:10;14.90;;;6.80;;
65182;SDS011;51771;51.068;-1.780;2023-08-17T06:52:35;13.32;;;6.70;;
65182;SDS011;51771;51.068;-1.780;2023-08-17T06:55:01;9.90;;;5.35;;
65182;SDS011;51771;51.068;-1.780;2023-08-17T06:57:26;13.13;;;7.47;;
65182;SDS011;51771;51.068;-1.780;2023-08-17T06:59:51;11.23;;;6.18;;
65182;SDS011;51771;51.068;-1.780;2023-08-17T07:02:17;10.40;;;5.70;;
65182;SDS011;51771;51.068;-1.780;2023-08-17T07:04:42;11.35;;;6.07;;
65182;SDS011;51771;51.068;-1.780;2023-08-17T07:07:08;12.60;;;5.82;;
65182;SDS011;51771;51.068;-1.780;2023-08-17T07:09:33;12.68;;;6.03;;
65182;SDS011;51771;51.068;-1.780;2023-08-17T07:11:58;13.07;;;5.97;;
65182;SDS011;51771;51.068;-1.780;2023-08-17T07:14:23;11.47;;;5.90;;
65182;SDS011;51771;51.068;-1.780;2023-08-17T07:16:49;11.30;;;5.65;;
65182;SDS011;51771;51.068;-1.780;2023-08-17T07:19:15;11.70;;;5.57;;
65182;SDS011;51771;51.068;-1.780;2023-08-17T07:21:40;10.50;;;5.43;;
65182;SDS011;51771;51.068;-1.780;2023-08-17T07:24:14;9.27;;;5.60;;
65182;SDS011;51771;51.068;-1.780;2023-08-17T07:26:40;9.25;;;4.78;;
65182;SDS011;51771;51.068;-1.780;2023-08-17T07:29:05;12.90;;;6.15;;
65182;SDS011;51771;51.068;-1.780;2023-08-17T07:31:30;11.13;;;5.38;;
65182;SDS011;51771;51.068;-1.780;2023-08-17T07:33:58;10.05;;;5.60;;
65182;SDS011;51771;51.068;-1.780;2023-08-17T07:36:23;11.05;;;5.88;;
65182;SDS011;51771;51.068;-1.780;2023-08-17T07:38:48;11.50;;;6.37;;
65182;SDS011;51771;51.068;-1.780;2023-08-17T07:41:14;12.73;;;5.67;;
65182;SDS011;51771;51.068;-1.780;2023-08-17T07:43:39;10.57;;;5.87;;
65182;SDS011;51771;51.068;-1.780;2023-08-17T07:46:04;11.30;;;5.77;;
65182;SDS011;51771;51.068;-1.780;2023-08-17T07:48:29;10.83;;;5.90;;
65182;SDS011;51771;51.068;-1.780;2023-08-17T07:50:58;10.48;;;5.18;;
65182;SDS011;51771;51.068;-1.780;2023-08-17T07:53:24;10.07;;;5.13;;
65182;SDS011;51771;51.068;-1.780;2023-08-17T07:55:49;12.60;;;6.13;;
65182;SDS011;51771;51.068;-1.780;2023-08-17T07:58:14;14.47;;;5.87;;
65182;SDS011;51771;51.068;-1.780;2023-08-17T08:00:39;14.63;;;6.03;;
65182;SDS011;51771;51.068;-1.780;2023-08-17T08:03:04;12.30;;;6.25;;
65182;SDS011;51771;51.068;-1.780;2023-08-17T08:05:30;14.80;;;6.30;;
65182;SDS011;51771;51.068;-1.780;2023-08-17T08:07:55;15.48;;;7.13;;
65182;SDS011;51771;51.068;-1.780;2023-08-17T08:10:20;13.30;;;6.78;;
65182;SDS011;51771;51.068;-1.780;2023-08-17T08:12:45;20.10;;;6.43;;
65182;SDS011;51771;51.068;-1.780;2023-08-17T08:15:11;19.37;;;6.80;;
65182;SDS011;51771;51.068;-1.780;2023-08-17T08:17:36;11.77;;;5.43;;
65182;SDS011;51771;51.068;-1.780;2023-08-17T08:20:02;17.83;;;6.57;;
65182;SDS011;51771;51.068;-1.780;2023-08-17T08:22:27;17.80;;;5.97;;
65182;SDS011;51771;51.068;-1.780;2023-08-17T08:24:52;15.43;;;6.03;;
65182;SDS011;51771;51.068;-1.780;2023-08-17T08:27:18;11.85;;;5.53;;
65182;SDS011;51771;51.068;-1.780;2023-08-17T08:29:43;13.33;;;6.10;;
65182;SDS011;51771;51.068;-1.780;2023-08-17T08:32:08;10.90;;;6.20;;
65182;SDS011;51771;51.068;-1.780;2023-08-17T08:34:33;10.17;;;5.40;;
65182;SDS011;51771;51.068;-1.780;2023-08-17T08:36:58;12.17;;;5.97;;
65182;SDS011;51771;51.068;-1.780;2023-08-17T08:39:27;16.70;;;6.57;;
65182;SDS011;51771;51.068;-1.780;2023-08-17T08:41:52;11.00;;;5.47;;
65182;SDS011;51771;51.068;-1.780;2023-08-17T08:44:18;13.95;;;5.90;;
65182;SDS011;51771;51.068;-1.780;2023-08-17T08:46:44;10.55;;;5.45;;
65182;SDS011;51771;51.068;-1.780;2023-08-17T08:49:10;13.23;;;5.60;;
65182;SDS011;51771;51.068;-1.780;2023-08-17T08:51:35;13.15;;;5.47;;
65182;SDS011;51771;51.068;-1.780;2023-08-17T08:54:02;9.40;;;5.22;;
65182;SDS011;51771;51.068;-1.780;2023-08-17T08:56:31;11.02;;;5.53;;
65182;SDS011;51771;51.068;-1.780;2023-08-17T08:58:57;10.63;;;4.75;;
65182;SDS011;51771;51.068;-1.780;2023-08-17T09:01:23;10.98;;;4.90;;
65182;SDS011;51771;51.068;-1.780;2023-08-17T09:03:49;17.02;;;5.25;;
65182;SDS011;51771;51.068;-1.780;2023-08-17T09:06:15;9.73;;;4.82;;
65182;SDS011;51771;51.068;-1.780;2023-08-17T09:08:41;9.52;;;5.20;;
65182;SDS011;51771;51.068;-1.780;2023-08-17T09:11:06;11.32;;;4.53;;
65182;SDS011;51771;51.068;-1.780;2023-08-17T09:13:31;7.37;;;4.63;;
65182;SDS011;51771;51.068;-1.780;2023-08-17T09:15:57;12.50;;;4.50;;
65182;SDS011;51771;51.068;-1.780;2023-08-17T09:18:23;12.77;;;5.07;;
65182;SDS011;51771;51.068;-1.780;2023-08-17T09:20:51;9.32;;;4.68;;
65182;SDS011;51771;51.068;-1.780;2023-08-17T09:23:17;7.30;;;3.83;;
65182;SDS011;51771;51.068;-1.780;2023-08-17T09:25:44;8.68;;;4.10;;
65182;SDS011;51771;51.068;-1.780;2023-08-17T09:28:14;7.93;;;4.60;;
65182;SDS011;51771;51.068;-1.780;2023-08-17T09:30:49;8.88;;;4.38;;
65182;SDS011;51771;51.068;-1.780;2023-08-17T09:33:15;7.85;;;3.67;;
65182;SDS011;51771;51.068;-1.780;2023-08-17T09:35:41;10.18;;;3.78;;
65182;SDS011;51771;51.068;-1.780;2023-08-17T09:38:07;7.30;;;3.97;;
65182;SDS011;51771;51.068;-1.780;2023-08-17T09:40:32;8.18;;;3.55;;
65182;SDS011;51771;51.068;-1.780;2023-08-17T09:42:57;8.30;;;3.43;;
65182;SDS011;51771;51.068;-1.780;2023-08-17T09:45:23;6.53;;;2.97;;
65182;SDS011;51771;51.068;-1.780;2023-08-17T09:47:48;4.83;;;2.70;;
65182;SDS011;51771;51.068;-1.780;2023-08-17T09:50:14;7.73;;;2.67;;
65182;SDS011;51771;51.068;-1.780;2023-08-17T09:52:39;4.77;;;2.50;;
65182;SDS011;51771;51.068;-1.780;2023-08-17T09:55:05;7.25;;;2.83;;
65182;SDS011;51771;51.068;-1.780;2023-08-17T09:57:31;8.02;;;2.47;;
65182;SDS011;51771;51.068;-1.780;2023-08-17T09:59:57;5.32;;;2.70;;
65182;SDS011;51771;51.068;-1.780;2023-08-17T10:02:22;6.70;;;2.80;;
65182;SDS011;51771;51.068;-1.780;2023-08-17T10:04:51;7.63;;;3.25;;
65182;SDS011;51771;51.068;-1.780;2023-08-17T10:07:20;5.28;;;2.53;;
65182;SDS011;51771;51.068;-1.780;2023-08-17T10:09:53;5.53;;;2.35;;
65182;SDS011;51771;51.068;-1.780;2023-08-17T10:12:22;7.43;;;2.72;;
65182;SDS011;51771;51.068;-1.780;2023-08-17T10:17:15;4.50;;;2.35;;
65182;SDS011;51771;51.068;-1.780;2023-08-17T10:19:43;5.75;;;2.60;;
65182;SDS011;51771;51.068;-1.780;2023-08-17T10:22:17;6.68;;;2.50;;
65182;SDS011;51771;51.068;-1.780;2023-08-17T10:24:43;6.45;;;2.53;;
65182;SDS011;51771;51.068;-1.780;2023-08-17T10:27:09;6.53;;;2.30;;
65182;SDS011;51771;51.068;-1.780;2023-08-17T10:29:35;4.45;;;2.08;;
65182;SDS011;51771;51.068;-1.780;2023-08-17T10:32:01;5.35;;;2.17;;
65182;SDS011;51771;51.068;-1.780;2023-08-17T10:34:26;5.80;;;1.80;;
65182;SDS011;51771;51.068;-1.780;2023-08-17T10:36:52;6.22;;;1.95;;
65182;SDS011;51771;51.068;-1.780;2023-08-17T10:39:25;4.90;;;2.40;;
65182;SDS011;51771;51.068;-1.780;2023-08-17T10:41:51;4.35;;;1.92;;
65182;SDS011;51771;51.068;-1.780;2023-08-17T10:44:17;5.10;;;1.92;;
65182;SDS011;51771;51.068;-1.780;2023-08-17T10:46:43;4.63;;;1.77;;
65182;SDS011;51771;51.068;-1.780;2023-08-17T10:49:25;3.88;;;1.80;;
65182;SDS011;51771;51.068;-1.780;2023-08-17T10:52:03;7.20;;;2.05;;
65182;SDS011;51771;51.068;-1.780;2023-08-17T10:55:03;6.22;;;2.05;;
65182;SDS011;51771;51.068;-1.780;2023-08-17T10:57:24;4.55;;;1.73;;
65182;SDS011;51771;51.068;-1.780;2023-08-17T11:00:06;6.05;;;2.13;;
65182;SDS011;51771;51.068;-1.780;2023-08-17T11:02:36;4.95;;;1.60;;
65182;SDS011;51771;51.068;-1.780;2023-08-17T11:05:01;6.90;;;1.65;;
65182;SDS011;51771;51.068;-1.780;2023-08-17T11:07:27;7.13;;;2.17;;
65182;SDS011;51771;51.068;-1.780;2023-08-17T11:10:10;4.32;;;1.80;;
65182;SDS011;51771;51.068;-1.780;2023-08-17T11:12:35;6.72;;;2.20;;
65182;SDS011;51771;51.068;-1.780;2023-08-17T11:15:00;3.88;;;1.80;;
65182;SDS011;51771;51.068;-1.780;2023-08-17T11:17:26;4.72;;;1.98;;
65182;SDS011;51771;51.068;-1.780;2023-08-17T11:19:51;4.77;;;2.10;;
65182;SDS011;51771;51.068;-1.780;2023-08-17T11:22:16;7.47;;;1.93;;
65182;SDS011;51771;51.068;-1.780;2023-08-17T11:24:42;5.55;;;2.10;;
65182;SDS011;51771;51.068;-1.780;2023-08-17T11:27:08;4.28;;;1.90;;
65182;SDS011;51771;51.068;-1.780;2023-08-17T11:29:34;5.93;;;2.22;;
65182;SDS011;51771;51.068;-1.780;2023-08-17T11:31:59;7.38;;;2.47;;
65182;SDS011;51771;51.068;-1.780;2023-08-17T11:34:24;6.23;;;2.60;;
65182;SDS011;51771;51.068;-1.780;2023-08-17T11:36:50;4.80;;;2.00;;
65182;SDS011;51771;51.068;-1.780;2023-08-17T11:39:15;8.07;;;2.03;;
65182;SDS011;51771;51.068;-1.780;2023-08-17T11:41:40;4.70;;;2.13;;
65182;SDS011;51771;51.068;-1.780;2023-08-17T11:44:06;4.65;;;2.20;;
65182;SDS011;51771;51.068;-1.780;2023-08-17T11:46:32;7.68;;;2.25;;
65182;SDS011;51771;51.068;-1.780;2023-08-17T11:49:00;6.93;;;2.00;;
65182;SDS011;51771;51.068;-1.780;2023-08-17T11:51:31;6.35;;;2.40;;
65182;SDS011;51771;51.068;-1.780;2023-08-17T11:53:58;5.82;;;1.98;;
65182;SDS011;51771;51.068;-1.780;2023-08-17T11:56:24;5.28;;;2.05;;
65182;SDS011;51771;51.068;-1.780;2023-08-17T11:58:49;4.70;;;1.93;;
65182;SDS011;51771;51.068;-1.780;2023-08-17T12:01:14;6.07;;;2.57;;
65182;SDS011;51771;51.068;-1.780;2023-08-17T12:03:41;4.90;;;1.88;;
65182;SDS011;51771;51.068;-1.780;2023-08-17T12:06:06;7.70;;;2.78;;
65182;SDS011;51771;51.068;-1.780;2023-08-17T12:08:32;6.35;;;2.15;;
65182;SDS011;51771;51.068;-1.780;2023-08-17T12:10:58;6.47;;;2.40;;
65182;SDS011;51771;51.068;-1.780;2023-08-17T12:13:32;6.63;;;2.83;;
65182;SDS011;51771;51.068;-1.780;2023-08-17T12:15:58;4.47;;;2.28;;
65182;SDS011;51771;51.068;-1.780;2023-08-17T12:18:24;4.75;;;1.58;;
65182;SDS011;51771;51.068;-1.780;2023-08-17T12:20:53;4.03;;;1.85;;
65182;SDS011;51771;51.068;-1.780;2023-08-17T12:23:18;4.72;;;2.00;;
65182;SDS011;51771;51.068;-1.780;2023-08-17T12:25:44;4.95;;;1.63;;
65182;SDS011;51771;51.068;-1.780;2023-08-17T12:28:12;5.40;;;1.80;;
65182;SDS011;51771;51.068;-1.780;2023-08-17T12:30:37;3.58;;;1.60;;
65182;SDS011;51771;51.068;-1.780;2023-08-17T12:33:02;5.72;;;1.70;;
65182;SDS011;51771;51.068;-1.780;2023-08-17T12:35:29;5.97;;;1.80;;
65182;SDS011;51771;51.068;-1.780;2023-08-17T12:37:54;4.80;;;1.80;;
65182;SDS011;51771;51.068;-1.780;2023-08-17T12:40:20;4.60;;;1.60;;
65182;SDS011;51771;51.068;-1.780;2023-08-17T12:42:45;4.57;;;1.52;;
65182;SDS011;51771;51.068;-1.780;2023-08-17T12:45:10;4.68;;;1.40;;
65182;SDS011;51771;51.068;-1.780;2023-08-17T12:47:36;4.13;;;1.60;;
65182;SDS011;51771;51.068;-1.780;2023-08-17T12:50:01;4.82;;;1.45;;
65182;SDS011;51771;51.068;-1.780;2023-08-17T12:52:28;3.80;;;1.42;;
65182;SDS011;51771;51.068;-1.780;2023-08-17T12:54:53;5.55;;;1.83;;
65182;SDS011;51771;51.068;-1.780;2023-08-17T12:57:19;5.60;;;1.50;;
65182;SDS011;51771;51.068;-1.780;2023-08-17T12:59:44;4.45;;;1.67;;
65182;SDS011;51771;51.068;-1.780;2023-08-17T13:02:09;4.38;;;1.52;;
65182;SDS011;51771;51.068;-1.780;2023-08-17T13:04:34;6.03;;;1.67;;
65182;SDS011;51771;51.068;-1.780;2023-08-17T13:07:00;3.92;;;1.40;;
65182;SDS011;51771;51.068;-1.780;2023-08-17T13:09:25;4.80;;;1.50;;
65182;SDS011;51771;51.068;-1.780;2023-08-17T13:11:50;3.65;;;1.27;;
65182;SDS011;51771;51.068;-1.780;2023-08-17T13:14:15;5.20;;;1.20;;
65182;SDS011;51771;51.068;-1.780;2023-08-17T13:16:41;3.88;;;1.48;;
65182;SDS011;51771;51.068;-1.780;2023-08-17T13:19:06;4.03;;;1.55;;
65182;SDS011;51771;51.068;-1.780;2023-08-17T13:21:31;4.00;;;1.27;;
65182;SDS011;51771;51.068;-1.780;2023-08-17T13:23:56;2.90;;;1.02;;
65182;SDS011;51771;51.068;-1.780;2023-08-17T13:26:22;5.07;;;1.50;;
65182;SDS011;51771;51.068;-1.780;2023-08-17T13:28:47;4.47;;;1.33;;
65182;SDS011;51771;51.068;-1.780;2023-08-17T13:31:12;5.30;;;1.47;;
65182;SDS011;51771;51.068;-1.780;2023-08-17T13:33:37;5.73;;;1.40;;
65182;SDS011;51771;51.068;-1.780;2023-08-17T13:36:03;6.50;;;1.53;;
65182;SDS011;51771;51.068;-1.780;2023-08-17T13:38:28;3.30;;;1.10;;
65182;SDS011;51771;51.068;-1.780;2023-08-17T13:40:53;4.45;;;1.60;;
65182;SDS011;51771;51.068;-1.780;2023-08-17T13:43:18;4.60;;;1.37;;
65182;SDS011;51771;51.068;-1.780;2023-08-17T13:45:44;5.00;;;1.40;;
65182;SDS011;51771;51.068;-1.780;2023-08-17T13:48:09;2.85;;;1.25;;
65182;SDS011;51771;51.068;-1.780;2023-08-17T13:50:38;3.00;;;1.30;;
65182;SDS011;51771;51.068;-1.780;2023-08-17T13:53:03;4.20;;;1.58;;
65182;SDS011;51771;51.068;-1.780;2023-08-17T13:55:29;4.53;;;1.40;;
65182;SDS011;51771;51.068;-1.780;2023-08-17T13:57:55;5.22;;;1.30;;
65182;SDS011;51771;51.068;-1.780;2023-08-17T14:00:21;2.97;;;1.27;;
65182;SDS011;51771;51.068;-1.780;2023-08-17T14:02:46;3.72;;;1.40;;
65182;SDS011;51771;51.068;-1.780;2023-08-17T14:05:11;4.10;;;1.50;;
65182;SDS011;51771;51.068;-1.780;2023-08-17T14:07:36;4.73;;;1.60;;
65182;SDS011;51771;51.068;-1.780;2023-08-17T14:10:01;3.00;;;1.10;;
65182;SDS011;51771;51.068;-1.780;2023-08-17T14:12:27;4.97;;;1.05;;
65182;SDS011;51771;51.068;-1.780;2023-08-17T14:14:52;3.87;;;1.30;;
65182;SDS011;51771;51.068;-1.780;2023-08-17T14:17:18;3.75;;;1.15;;
65182;SDS011;51771;51.068;-1.780;2023-08-17T14:19:43;4.53;;;1.27;;
65182;SDS011;51771;51.068;-1.780;2023-08-17T14:22:08;6.90;;;1.50;;
65182;SDS011;51771;51.068;-1.780;2023-08-17T14:24:33;4.43;;;1.37;;
65182;SDS011;51771;51.068;-1.780;2023-08-17T14:26:58;3.75;;;1.20;;
65182;SDS011;51771;51.068;-1.780;2023-08-17T14:29:24;5.47;;;1.40;;
65182;SDS011;51771;51.068;-1.780;2023-08-17T14:31:49;3.15;;;1.25;;